메인 페이지
METAR-TAF:

METAR-TAF

공항 :

아르한겔스크, 러시아

위도: 64-30N, 경도: 040-44E, 고도: 13m

현재 날씨관측

예보는 20분 전, 04:30시(UTC)에 발표되었습니다.
남서8kt남남동풍과 풍을 오가는
온도 6°C
습도 100%
기압 997 hPa
시정: 8000m
고도 900ft 상공 흐림
약한비

METAR: ULAA 220430Z 22004MPS 160V270 8000 -RA OVC009 06/06 Q0997 R26/290060 NOSIG RMK QFE746/0995

시각: 07:50 (04:50 UTC)

예보

예보는 2 시간 50분 전, 02:00시(UTC)에 발표되었습니다.
예보 대상 시간: 22일 03시부터 23일 03시까지 (UTC)
남서12kt
시정: 6000m
고도 600ft 상공 구름 많음
고도 1100ft 상공 구름 많음
약한비
일시적
22일 03시부터 22일 12시까지 (UTC)
서남서17kt, 순간 최대 풍속 31kt
시정: 1000m
고도 200ft 상공 구름 많음
고도 1100ft 상공 구름 많음, 적란운.
소나기, 박무
일시적
22일 12시부터 22일 18시까지 (UTC)
17kt, 순간 최대 풍속 31kt
시정: 2100m
고도 400ft 상공 구름 많음
고도 1100ft 상공 구름 많음, 적란운.
소나기, 박무
일시적
22일 18시부터 23일 03시까지 (UTC)
10kt, 순간 최대 풍속 23kt
시정: 3100m
고도 700ft 상공 구름 많음
고도 1100ft 상공 구름 많음, 적란운.
약한소나기

TAF: ULAA 220200Z 2203/2303 22006MPS 6000 -RA BKN006 BKN011 TEMPO 2203/2212 24009G16MPS 1000 SHRA BR BKN002 BKN011CB TEMPO 2212/2218 26009G16MPS 2100 SHRA BR BKN004 BKN011CB TEMPO 2218/2303 27005G12MPS 3100 -SHRA BKN007 BKN011CB

4,000개 이상의 공항 관측 자료 및 예보 (METAR 및 TAF 보고).

지도상에서 검색 가능한 기상관측소가 노란 점과 빨간 점으로 표시되어 있습니다.

기상관측소 명을 보려면 표시 위로 마우스를 이동하세요.

날씨 관측과 예보를 보려면 클릭하세요.

지도 변경 : 확대하려면 엑스 표시가 있는 녹색 버튼, 축소하려면 빼기 표시가 있는 녹색 버튼, 다음 페이지의 지도를 보려면 녹색 화살표를 클릭하세요.


METAR-TAF: